NORTHEAST SUFFOLK  -  Special Weather Statement Special Weather Statement        NORTHERN NASSAU  -  Special Weather Statement Special Weather Statement        NORTHWEST SUFFOLK  -  Special Weather Statement Special Weather Statement        SOUTHEAST SUFFOLK  -  Special Weather Statement Special Weather Statement        SOUTHERN NASSAU  -  Special Weather Statement Special Weather Statement        SOUTHWEST SUFFOLK  -  Special Weather Statement Special Weather Statement      

Active alerts

Northern Nassau
  Details for Northern Nassau Special Weather Statement
Southern Nassau
  Details for Southern Nassau Special Weather Statement
Northwest Suffolk
  Details for Northwest Suffolk Special Weather Statement
Southwest Suffolk
  Details for Southwest Suffolk Special Weather Statement
Northeast Suffolk
  Details for Northeast Suffolk Special Weather Statement
Southeast Suffolk
  Details for Southeast Suffolk Special Weather Statement


WXM80 ListenWXM80 Stop

You find our weather info also at:

UK Metoffice

WeatherCloud

Weather Underground

Northeastern Weather Network

AWEKAS

Citizen Weather Observer Program (CWOP)

HAMweather, WeatherForYou, PWS Weather


Weather Underground History page Text

Daily Summary for November 23, 2017 Units:  Both    English   Metric
« Previous Day
Next Day »
Daily Weekly Monthly Yearly Custom
  High: Low: Average:
Temperature: 42.5 °F /  5.8 °C 31.1 °F /  -0.5 °C 36.2 °F /  2.3 °C
Dew Point: 29.1 °F /  -1.6 °C 24.5 °F /  -4.2 °C 26.3 °F /  -3.2 °C
Humidity: 81 % 52 % 67 %
Wind Speed: 7.4 mph /  11.9 km/h - 1.9 mph /  3.1 km/h
Wind Gust: 15.0 mph /  24.1 km/h - -
Wind:- - West
Pressure: 30.14 in /  1020.5 hPa 29.80 in /  1009 hPa -
Precipitation: 0.00 in /  0 mm    
Historical Graphs
 
 
Tabular Data for November 23, 2017
Time Temperature Dew Point Pressure Wind Wind Speed Wind Gust Humidity Rainfall Rate (Hourly)
00:02 38.1 °F /  3.4 °C 28.8 °F /  -1.8 °C 30.08 in /  1018.5 hPa SW 4.8 mph /  7.7 km/h 10.4 mph /  16.7 km/h 69 % 0.00 in /  0 mm
00:07 38.1 °F /  3.4 °C 28.8 °F /  -1.8 °C 30.08 in /  1018.5 hPa North 4.6 mph /  7.4 km/h 6.0 mph /  9.7 km/h 69 % 0.00 in /  0 mm
00:12 38.0 °F /  3.3 °C 29.1 °F /  -1.6 °C 30.08 in /  1018.5 hPa North 5.3 mph /  8.5 km/h 14.0 mph /  22.5 km/h 70 % 0.00 in /  0 mm
00:17 38.0 °F /  3.3 °C 28.7 °F /  -1.8 °C 30.09 in /  1018.8 hPa NNW 4.5 mph /  7.2 km/h 6.9 mph /  11.1 km/h 69 % 0.00 in /  0 mm
00:23 37.9 °F /  3.3 °C 28.6 °F /  -1.9 °C 30.08 in /  1018.5 hPa NNW 3.8 mph /  6.1 km/h 8.1 mph /  13 km/h 69 % 0.00 in /  0 mm
00:33 37.7 °F /  3.2 °C 28.8 °F /  -1.8 °C 30.08 in /  1018.5 hPa NW 1.0 mph /  1.6 km/h 8.1 mph /  13 km/h 70 % 0.00 in /  0 mm
00:38 37.7 °F /  3.2 °C 28.8 °F /  -1.8 °C 30.08 in /  1018.5 hPa WNW 4.3 mph /  6.9 km/h 10.4 mph /  16.7 km/h 70 % 0.00 in /  0 mm
00:43 37.6 °F /  3.1 °C 28.7 °F /  -1.8 °C 30.08 in /  1018.5 hPa NW 5.4 mph /  8.7 km/h 7.0 mph /  11.3 km/h 70 % 0.00 in /  0 mm
00:48 37.5 °F /  3.1 °C 28.2 °F /  -2.1 °C 30.07 in /  1018.2 hPa West 2.4 mph /  3.9 km/h 12.7 mph /  20.4 km/h 69 % 0.00 in /  0 mm
00:53 37.5 °F /  3.1 °C 28.6 °F /  -1.9 °C 30.07 in /  1018.2 hPa WNW 2.9 mph /  4.7 km/h 8.1 mph /  13 km/h 70 % 0.00 in /  0 mm
01:03 37.4 °F /  3 °C 28.5 °F /  -1.9 °C 30.07 in /  1018.2 hPa West 6.4 mph /  10.3 km/h 11.5 mph /  18.5 km/h 70 % 0.00 in /  0 mm
01:08 37.3 °F /  2.9 °C 28.4 °F /  -2 °C 29.84 in /  1010.4 hPa WNW 0.9 mph /  1.4 km/h 8.1 mph /  13 km/h 70 % 0.00 in /  0 mm
01:18 37.1 °F /  2.8 °C 28.2 °F /  -2.1 °C 30.08 in /  1018.5 hPa West 5.3 mph /  8.5 km/h 10.4 mph /  16.7 km/h 70 % 0.00 in /  0 mm
01:23 37.0 °F /  2.8 °C 28.5 °F /  -1.9 °C 30.08 in /  1018.5 hPa North 4.7 mph /  7.6 km/h 8.0 mph /  12.9 km/h 71 % 0.00 in /  0 mm
01:28 36.9 °F /  2.7 °C 28.4 °F /  -2 °C 30.08 in /  1018.5 hPa WSW 3.2 mph /  5.1 km/h 6.0 mph /  9.7 km/h 71 % 0.00 in /  0 mm
01:38 36.7 °F /  2.6 °C 28.2 °F /  -2.1 °C 29.85 in /  1010.7 hPa NW 3.0 mph /  4.8 km/h 6.9 mph /  11.1 km/h 71 % 0.00 in /  0 mm
01:53 36.5 °F /  2.5 °C 28.0 °F /  -2.2 °C 30.09 in /  1018.8 hPa NW 2.2 mph /  3.5 km/h 5.8 mph /  9.3 km/h 71 % 0.00 in /  0 mm
01:58 36.4 °F /  2.4 °C 27.9 °F /  -2.3 °C 30.09 in /  1018.8 hPa WNW 4.4 mph /  7.1 km/h 8.1 mph /  13 km/h 71 % 0.00 in /  0 mm
02:03 36.4 °F /  2.4 °C 27.9 °F /  -2.3 °C 30.09 in /  1018.8 hPa NW 3.8 mph /  6.1 km/h 6.0 mph /  9.7 km/h 71 % 0.00 in /  0 mm
02:13 36.1 °F /  2.3 °C 27.6 °F /  -2.4 °C 30.10 in /  1019.2 hPa West 4.6 mph /  7.4 km/h 8.1 mph /  13 km/h 71 % 0.00 in /  0 mm
02:18 36.1 °F /  2.3 °C 27.6 °F /  -2.4 °C 30.10 in /  1019.2 hPa West 6.0 mph /  9.7 km/h 9.2 mph /  14.8 km/h 71 % 0.00 in /  0 mm
02:23 36.0 °F /  2.2 °C 27.5 °F /  -2.5 °C 30.10 in /  1019.2 hPa WNW 5.0 mph /  8 km/h 9.2 mph /  14.8 km/h 71 % 0.00 in /  0 mm
02:28 35.9 °F /  2.2 °C 27.4 °F /  -2.6 °C 30.10 in /  1019.2 hPa NW 2.5 mph /  4 km/h 8.0 mph /  12.9 km/h 71 % 0.00 in /  0 mm
02:38 35.8 °F /  2.1 °C 27.7 °F /  -2.4 °C 30.09 in /  1018.8 hPa NW 3.6 mph /  5.8 km/h 9.2 mph /  14.8 km/h 72 % 0.00 in /  0 mm
02:43 35.7 °F /  2.1 °C 27.2 °F /  -2.7 °C 30.09 in /  1018.8 hPa NNE 2.5 mph /  4 km/h 8.1 mph /  13 km/h 71 % 0.00 in /  0 mm
02:53 35.7 °F /  2.1 °C 27.6 °F /  -2.4 °C 29.86 in /  1011.1 hPa WNW 5.2 mph /  8.4 km/h 11.5 mph /  18.5 km/h 72 % 0.00 in /  0 mm
02:58 35.6 °F /  2 °C 27.1 °F /  -2.7 °C 30.09 in /  1018.8 hPa WNW 5.2 mph /  8.4 km/h 11.5 mph /  18.5 km/h 71 % 0.00 in /  0 mm
03:03 35.6 °F /  2 °C 27.5 °F /  -2.5 °C 30.09 in /  1018.8 hPa West 3.4 mph /  5.5 km/h 11.5 mph /  18.5 km/h 72 % 0.00 in /  0 mm
03:08 35.6 °F /  2 °C 27.5 °F /  -2.5 °C 30.09 in /  1018.8 hPa WNW 5.5 mph /  8.9 km/h 9.2 mph /  14.8 km/h 72 % 0.00 in /  0 mm
03:13 35.6 °F /  2 °C 27.5 °F /  -2.5 °C 30.10 in /  1019.2 hPa WNW 3.9 mph /  6.3 km/h 11.5 mph /  18.5 km/h 72 % 0.00 in /  0 mm
03:18 35.6 °F /  2 °C 27.1 °F /  -2.7 °C 30.09 in /  1018.8 hPa North 7.4 mph /  11.9 km/h 15.0 mph /  24.1 km/h 71 % 0.00 in /  0 mm
03:23 35.5 °F /  1.9 °C 27.4 °F /  -2.6 °C 30.08 in /  1018.5 hPa WNW 6.1 mph /  9.8 km/h 10.4 mph /  16.7 km/h 72 % 0.00 in /  0 mm
03:29 35.4 °F /  1.9 °C 27.3 °F /  -2.6 °C 30.09 in /  1018.8 hPa NW 6.5 mph /  10.5 km/h 10.4 mph /  16.7 km/h 72 % 0.00 in /  0 mm
03:39 35.3 °F /  1.8 °C 27.5 °F /  -2.5 °C 30.09 in /  1018.8 hPa WNW 4.1 mph /  6.6 km/h 11.5 mph /  18.5 km/h 73 % 0.00 in /  0 mm
03:44 35.3 °F /  1.8 °C 27.2 °F /  -2.7 °C 30.09 in /  1018.8 hPa North 3.3 mph /  5.3 km/h 9.0 mph /  14.5 km/h 72 % 0.00 in /  0 mm
03:49 35.2 °F /  1.8 °C 26.7 °F /  -2.9 °C 30.09 in /  1018.8 hPa NW 4.9 mph /  7.9 km/h 10.4 mph /  16.7 km/h 71 % 0.00 in /  0 mm
03:54 35.1 °F /  1.7 °C 26.6 °F /  -3 °C 30.09 in /  1018.8 hPa NW 4.7 mph /  7.6 km/h 6.9 mph /  11.1 km/h 71 % 0.00 in /  0 mm
03:59 35.0 °F /  1.7 °C 26.5 °F /  -3.1 °C 30.09 in /  1018.8 hPa NW 7.1 mph /  11.4 km/h 13.8 mph /  22.2 km/h 71 % 0.00 in /  0 mm
04:09 34.9 °F /  1.6 °C 26.4 °F /  -3.1 °C 30.09 in /  1018.8 hPa NW 4.5 mph /  7.2 km/h 8.1 mph /  13 km/h 71 % 0.00 in /  0 mm
04:25 34.8 °F /  1.6 °C 27.0 °F /  -2.8 °C 30.10 in /  1019.2 hPa NNW 5.9 mph /  9.5 km/h 6.0 mph /  9.7 km/h 73 % 0.00 in /  0 mm
04:30 34.7 °F /  1.5 °C 26.6 °F /  -3 °C 29.86 in /  1011.1 hPa NW 2.2 mph /  3.5 km/h 12.7 mph /  20.4 km/h 72 % 0.00 in /  0 mm
04:35 34.6 °F /  1.4 °C 26.5 °F /  -3.1 °C 30.09 in /  1018.8 hPa WNW 5.5 mph /  8.9 km/h 10.0 mph /  16.1 km/h 72 % 0.00 in /  0 mm
04:45 34.4 °F /  1.3 °C 26.3 °F /  -3.2 °C 30.09 in /  1018.8 hPa NNW 2.1 mph /  3.4 km/h 6.9 mph /  11.1 km/h 72 % 0.00 in /  0 mm
04:50 34.4 °F /  1.3 °C 26.3 °F /  -3.2 °C 30.09 in /  1018.8 hPa NNW 4.3 mph /  6.9 km/h 8.1 mph /  13 km/h 72 % 0.00 in /  0 mm
05:00 34.3 °F /  1.3 °C 25.9 °F /  -3.4 °C 30.09 in /  1018.8 hPa North 5.7 mph /  9.2 km/h 11.5 mph /  18.5 km/h 71 % 0.00 in /  0 mm
05:10 34.1 °F /  1.2 °C 26.0 °F /  -3.3 °C 30.10 in /  1019.2 hPa North 6.6 mph /  10.6 km/h 13.8 mph /  22.2 km/h 72 % 0.00 in /  0 mm
05:20 34.0 °F /  1.1 °C 25.6 °F /  -3.6 °C 30.10 in /  1019.2 hPa NNE 4.0 mph /  6.4 km/h 8.1 mph /  13 km/h 71 % 0.00 in /  0 mm
05:25 33.9 °F /  1.1 °C 25.8 °F /  -3.4 °C 30.10 in /  1019.2 hPa North 3.6 mph /  5.8 km/h 6.9 mph /  11.1 km/h 72 % 0.00 in /  0 mm
05:35 33.7 °F /  0.9 °C 25.3 °F /  -3.7 °C 30.09 in /  1018.8 hPa North 1.9 mph /  3.1 km/h 6.0 mph /  9.7 km/h 71 % 0.00 in /  0 mm
05:40 33.7 °F /  0.9 °C 26.0 °F /  -3.3 °C 30.09 in /  1018.8 hPa NW 2.6 mph /  4.2 km/h 6.9 mph /  11.1 km/h 73 % 0.00 in /  0 mm
05:45 33.6 °F /  0.9 °C 25.5 °F /  -3.6 °C 30.09 in /  1018.8 hPa NW 2.8 mph /  4.5 km/h 6.9 mph /  11.1 km/h 72 % 0.00 in /  0 mm
05:55 33.5 °F /  0.8 °C 25.4 °F /  -3.7 °C 30.11 in /  1019.5 hPa NW 0.7 mph /  1.1 km/h 6.9 mph /  11.1 km/h 72 % 0.00 in /  0 mm
06:00 33.4 °F /  0.8 °C 25.3 °F /  -3.7 °C 30.11 in /  1019.5 hPa NNW 3.0 mph /  4.8 km/h 5.8 mph /  9.3 km/h 72 % 0.00 in /  0 mm
06:10 33.3 °F /  0.7 °C 25.6 °F /  -3.6 °C 30.10 in /  1019.2 hPa North 4.9 mph /  7.9 km/h 5.8 mph /  9.3 km/h 73 % 0.00 in /  0 mm
06:15 33.3 °F /  0.7 °C 25.6 °F /  -3.6 °C 30.11 in /  1019.5 hPa NNW 0.7 mph /  1.1 km/h 3.5 mph /  5.6 km/h 73 % 0.00 in /  0 mm
06:20 33.2 °F /  0.7 °C 25.1 °F /  -3.8 °C 29.87 in /  1011.4 hPa North 1.7 mph /  2.7 km/h 3.5 mph /  5.6 km/h 72 % 0.00 in /  0 mm
06:26 33.2 °F /  0.7 °C 25.5 °F /  -3.6 °C 30.11 in /  1019.5 hPa NNW 5.0 mph /  8 km/h 9.0 mph /  14.5 km/h 73 % 0.00 in /  0 mm
06:31 33.2 °F /  0.7 °C 25.5 °F /  -3.6 °C 30.11 in /  1019.5 hPa North 1.0 mph /  1.6 km/h 6.0 mph /  9.7 km/h 73 % 0.00 in /  0 mm
06:36 33.2 °F /  0.7 °C 25.1 °F /  -3.8 °C 30.10 in /  1019.2 hPa NNW 1.4 mph /  2.3 km/h 4.6 mph /  7.4 km/h 72 % 0.00 in /  0 mm
06:41 33.1 °F /  0.6 °C 25.1 °F /  -3.8 °C 29.87 in /  1011.4 hPa NW 3.9 mph /  6.3 km/h 9.2 mph /  14.8 km/h 72 % 0.00 in /  0 mm
06:51 33.0 °F /  0.6 °C 25.0 °F /  -3.9 °C 29.87 in /  1011.4 hPa NNW 1.0 mph /  1.6 km/h 3.5 mph /  5.6 km/h 72 % 0.00 in /  0 mm
06:56 33.0 °F /  0.6 °C 25.3 °F /  -3.7 °C 30.11 in /  1019.5 hPa North 1.5 mph /  2.4 km/h 3.5 mph /  5.6 km/h 73 % 0.00 in /  0 mm
07:06 32.9 °F /  0.5 °C 25.2 °F /  -3.8 °C 30.11 in /  1019.5 hPa NW 1.2 mph /  1.9 km/h 3.5 mph /  5.6 km/h 73 % 0.00 in /  0 mm
07:11 32.9 °F /  0.5 °C 25.2 °F /  -3.8 °C 30.12 in /  1019.9 hPa WNW 0.1 mph /  0.2 km/h 2.0 mph /  3.2 km/h 73 % 0.00 in /  0 mm
07:16 32.8 °F /  0.4 °C 25.1 °F /  -3.8 °C 30.13 in /  1020.2 hPa Calm   3.5 mph /  5.6 km/h 73 % 0.00 in /  0 mm
07:21 32.8 °F /  0.4 °C 24.8 °F /  -4 °C 30.13 in /  1020.2 hPa WNW 3.0 mph /  4.8 km/h 3.5 mph /  5.6 km/h 72 % 0.00 in /  0 mm
07:26 32.8 °F /  0.4 °C 24.8 °F /  -4 °C 30.13 in /  1020.2 hPa WNW 1.4 mph /  2.3 km/h 3.5 mph /  5.6 km/h 72 % 0.00 in /  0 mm
07:31 32.9 °F /  0.5 °C 24.9 °F /  -3.9 °C 30.13 in /  1020.2 hPa NE 3.1 mph /  5 km/h 8.1 mph /  13 km/h 72 % 0.00 in /  0 mm
07:36 33.0 °F /  0.6 °C 25.0 °F /  -3.9 °C 30.13 in /  1020.2 hPa NW 2.1 mph /  3.4 km/h 7.0 mph /  11.3 km/h 72 % 0.00 in /  0 mm
07:41 33.1 °F /  0.6 °C 25.1 °F /  -3.8 °C 29.89 in /  1012.1 hPa North 0.4 mph /  0.6 km/h 4.6 mph /  7.4 km/h 72 % 0.00 in /  0 mm
07:51 33.2 °F /  0.7 °C 24.5 °F /  -4.2 °C 30.13 in /  1020.2 hPa North 2.3 mph /  3.7 km/h 5.0 mph /  8 km/h 70 % 0.00 in /  0 mm
07:57 33.4 °F /  0.8 °C 25.3 °F /  -3.7 °C 30.13 in /  1020.2 hPa NNE 1.0 mph /  1.6 km/h 3.5 mph /  5.6 km/h 72 % 0.00 in /  0 mm
08:03 33.5 °F /  0.8 °C 24.8 °F /  -4 °C 30.13 in /  1020.2 hPa NNW 4.4 mph /  7.1 km/h 8.1 mph /  13 km/h 70 % 0.00 in /  0 mm
08:08 33.6 °F /  0.9 °C 24.5 °F /  -4.2 °C 30.13 in /  1020.2 hPa North 1.1 mph /  1.8 km/h 5.8 mph /  9.3 km/h 69 % 0.00 in /  0 mm
08:13 33.7 °F /  0.9 °C 25.0 °F /  -3.9 °C 30.13 in /  1020.2 hPa NW 2.4 mph /  3.9 km/h 3.5 mph /  5.6 km/h 70 % 0.00 in /  0 mm
08:18 33.8 °F /  1 °C 24.7 °F /  -4.1 °C 30.13 in /  1020.2 hPa WNW 2.9 mph /  4.7 km/h 6.0 mph /  9.7 km/h 69 % 0.00 in /  0 mm
08:28 34.0 °F /  1.1 °C 24.9 °F /  -3.9 °C 29.90 in /  1012.4 hPa WNW 3.9 mph /  6.3 km/h 8.0 mph /  12.9 km/h 69 % 0.00 in /  0 mm
08:38 34.3 °F /  1.3 °C 25.2 °F /  -3.8 °C 30.13 in /  1020.2 hPa NW 1.2 mph /  1.9 km/h 2.3 mph /  3.7 km/h 69 % 0.00 in /  0 mm
08:43 34.3 °F /  1.3 °C 24.8 °F /  -4 °C 30.13 in /  1020.2 hPa NW 2.2 mph /  3.5 km/h 4.6 mph /  7.4 km/h 68 % 0.00 in /  0 mm
08:58 35.3 °F /  1.8 °C 25.4 °F /  -3.7 °C 30.13 in /  1020.2 hPa NNE 2.2 mph /  3.5 km/h 4.6 mph /  7.4 km/h 67 % 0.00 in /  0 mm
09:08 36.3 °F /  2.4 °C 25.7 °F /  -3.5 °C 30.13 in /  1020.2 hPa North 3.2 mph /  5.1 km/h 11.5 mph /  18.5 km/h 65 % 0.00 in /  0 mm
09:23 37.8 °F /  3.2 °C 27.1 °F /  -2.7 °C 30.13 in /  1020.2 hPa NW 0.8 mph /  1.3 km/h 3.5 mph /  5.6 km/h 65 % 0.00 in /  0 mm
09:34 38.5 °F /  3.6 °C 26.6 °F /  -3 °C 30.14 in /  1020.5 hPa WNW 2.5 mph /  4 km/h 7.0 mph /  11.3 km/h 62 % 0.00 in /  0 mm
09:39 38.9 °F /  3.8 °C 27.4 °F /  -2.6 °C 30.14 in /  1020.5 hPa WNW 0.8 mph /  1.3 km/h 3.5 mph /  5.6 km/h 63 % 0.00 in /  0 mm
09:44 39.4 °F /  4.1 °C 27.5 °F /  -2.5 °C 30.13 in /  1020.2 hPa WSW 2.5 mph /  4 km/h 7.0 mph /  11.3 km/h 62 % 0.00 in /  0 mm
09:54 40.0 °F /  4.4 °C 27.2 °F /  -2.7 °C 30.13 in /  1020.2 hPa North 2.1 mph /  3.4 km/h 4.6 mph /  7.4 km/h 60 % 0.00 in /  0 mm
09:59 40.4 °F /  4.7 °C 28.4 °F /  -2 °C 30.12 in /  1019.9 hPa North 3.9 mph /  6.3 km/h 5.8 mph /  9.3 km/h 62 % 0.00 in /  0 mm
10:04 40.6 °F /  4.8 °C 28.2 °F /  -2.1 °C 30.12 in /  1019.9 hPa NW 2.0 mph /  3.2 km/h 4.6 mph /  7.4 km/h 61 % 0.00 in /  0 mm
10:09 40.9 °F /  4.9 °C 28.1 °F /  -2.2 °C 30.13 in /  1020.2 hPa NNW 1.3 mph /  2.1 km/h 3.5 mph /  5.6 km/h 60 % 0.00 in /  0 mm
10:14 41.1 °F /  5.1 °C 28.3 °F /  -2.1 °C 30.12 in /  1019.9 hPa NNW 3.1 mph /  5 km/h 5.0 mph /  8 km/h 60 % 0.00 in /  0 mm
10:19 41.2 °F /  5.1 °C 28.4 °F /  -2 °C 30.12 in /  1019.9 hPa NNE 2.2 mph /  3.5 km/h 4.6 mph /  7.4 km/h 60 % 0.00 in /  0 mm
10:24 41.1 °F /  5.1 °C 27.4 °F /  -2.6 °C 30.12 in /  1019.9 hPa WNW 4.3 mph /  6.9 km/h 5.8 mph /  9.3 km/h 58 % 0.00 in /  0 mm
10:29 41.0 °F /  5 °C 28.2 °F /  -2.1 °C 30.12 in /  1019.9 hPa NNW 0.5 mph /  0.8 km/h 3.5 mph /  5.6 km/h 60 % 0.00 in /  0 mm
10:34 40.7 °F /  4.8 °C 27.5 °F /  -2.5 °C 30.12 in /  1019.9 hPa NW 3.3 mph /  5.3 km/h 6.9 mph /  11.1 km/h 59 % 0.00 in /  0 mm
10:39 40.6 °F /  4.8 °C 27.0 °F /  -2.8 °C 30.12 in /  1019.9 hPa NW 1.7 mph /  2.7 km/h 4.6 mph /  7.4 km/h 58 % 0.00 in /  0 mm
10:44 40.4 °F /  4.7 °C 26.8 °F /  -2.9 °C 30.12 in /  1019.9 hPa NW 0.7 mph /  1.1 km/h 2.3 mph /  3.7 km/h 58 % 0.00 in /  0 mm
10:49 40.2 °F /  4.6 °C 27.0 °F /  -2.8 °C 30.11 in /  1019.5 hPa NW 1.6 mph /  2.6 km/h 4.6 mph /  7.4 km/h 59 % 0.00 in /  0 mm
10:54 39.9 °F /  4.4 °C 26.7 °F /  -2.9 °C 30.12 in /  1019.9 hPa NNW 2.4 mph /  3.9 km/h 4.6 mph /  7.4 km/h 59 % 0.00 in /  0 mm
10:59 39.7 °F /  4.3 °C 26.1 °F /  -3.3 °C 29.87 in /  1011.4 hPa NW 0.5 mph /  0.8 km/h 6.9 mph /  11.1 km/h 58 % 0.00 in /  0 mm
11:04 39.4 °F /  4.1 °C 25.8 °F /  -3.4 °C 30.11 in /  1019.5 hPa NW 2.2 mph /  3.5 km/h 5.8 mph /  9.3 km/h 58 % 0.00 in /  0 mm
11:14 38.8 °F /  3.8 °C 25.7 °F /  -3.5 °C 30.10 in /  1019.2 hPa WNW 1.4 mph /  2.3 km/h 4.6 mph /  7.4 km/h 59 % 0.00 in /  0 mm
11:29 38.4 °F /  3.6 °C 25.7 °F /  -3.5 °C 30.09 in /  1018.8 hPa NNW 1.9 mph /  3.1 km/h 8.0 mph /  12.9 km/h 60 % 0.00 in /  0 mm
11:35 38.3 °F /  3.5 °C 26.0 °F /  -3.3 °C 30.09 in /  1018.8 hPa NW 2.8 mph /  4.5 km/h 5.8 mph /  9.3 km/h 61 % 0.00 in /  0 mm
11:40 38.3 °F /  3.5 °C 26.4 °F /  -3.1 °C 30.08 in /  1018.5 hPa NW 1.0 mph /  1.6 km/h 3.5 mph /  5.6 km/h 62 % 0.00 in /  0 mm
11:45 38.2 °F /  3.4 °C 26.7 °F /  -2.9 °C 29.84 in /  1010.4 hPa NNW 1.2 mph /  1.9 km/h 5.0 mph /  8 km/h 63 % 0.00 in /  0 mm
11:51 38.2 °F /  3.4 °C 26.3 °F /  -3.2 °C 30.08 in /  1018.5 hPa NW 3.0 mph /  4.8 km/h 7.0 mph /  11.3 km/h 62 % 0.00 in /  0 mm
11:56 38.3 °F /  3.5 °C 26.0 °F /  -3.3 °C 29.85 in /  1010.7 hPa NW 3.8 mph /  6.1 km/h 7.0 mph /  11.3 km/h 61 % 0.00 in /  0 mm
12:06 38.5 °F /  3.6 °C 25.4 °F /  -3.7 °C 30.08 in /  1018.5 hPa West 2.0 mph /  3.2 km/h 5.8 mph /  9.3 km/h 59 % 0.00 in /  0 mm
12:11 38.6 °F /  3.7 °C 25.9 °F /  -3.4 °C 30.08 in /  1018.5 hPa North 4.6 mph /  7.4 km/h 8.1 mph /  13 km/h 60 % 0.00 in /  0 mm
12:16 38.7 °F /  3.7 °C 26.0 °F /  -3.3 °C 30.08 in /  1018.5 hPa NW 2.4 mph /  3.9 km/h 3.5 mph /  5.6 km/h 60 % 0.00 in /  0 mm
12:21 38.8 °F /  3.8 °C 26.1 °F /  -3.3 °C 30.08 in /  1018.5 hPa NW 1.3 mph /  2.1 km/h 3.5 mph /  5.6 km/h 60 % 0.00 in /  0 mm
12:26 39.0 °F /  3.9 °C 25.9 °F /  -3.4 °C 30.08 in /  1018.5 hPa WNW 0.6 mph /  1 km/h 4.6 mph /  7.4 km/h 59 % 0.00 in /  0 mm
12:36 39.2 °F /  4 °C 25.6 °F /  -3.6 °C 30.07 in /  1018.2 hPa WNW 1.0 mph /  1.6 km/h 2.3 mph /  3.7 km/h 58 % 0.00 in /  0 mm
12:41 39.3 °F /  4.1 °C 25.3 °F /  -3.7 °C 30.07 in /  1018.2 hPa SW 4.0 mph /  6.4 km/h 8.0 mph /  12.9 km/h 57 % 0.00 in /  0 mm
13:01 39.8 °F /  4.3 °C 26.2 °F /  -3.2 °C 30.07 in /  1018.2 hPa NNW 2.1 mph /  3.4 km/h 3.5 mph /  5.6 km/h 58 % 0.00 in /  0 mm
13:07 40.0 °F /  4.4 °C 26.4 °F /  -3.1 °C 30.06 in /  1017.8 hPa WNW 3.0 mph /  4.8 km/h 4.6 mph /  7.4 km/h 58 % 0.00 in /  0 mm
13:12 40.2 °F /  4.6 °C 25.7 °F /  -3.5 °C 30.06 in /  1017.8 hPa WNW 2.4 mph /  3.9 km/h 4.0 mph /  6.4 km/h 56 % 0.00 in /  0 mm
13:27 40.8 °F /  4.9 °C 26.3 °F /  -3.2 °C 30.06 in /  1017.8 hPa WNW 3.7 mph /  6 km/h 6.9 mph /  11.1 km/h 56 % 0.00 in /  0 mm
13:32 41.1 °F /  5.1 °C 26.1 °F /  -3.3 °C 30.06 in /  1017.8 hPa NW 0.3 mph /  0.5 km/h 3.5 mph /  5.6 km/h 55 % 0.00 in /  0 mm
13:37 41.4 °F /  5.2 °C 26.9 °F /  -2.8 °C 30.05 in /  1017.5 hPa West 1.2 mph /  1.9 km/h 3.5 mph /  5.6 km/h 56 % 0.00 in /  0 mm
13:44 41.8 °F /  5.4 °C 26.4 °F /  -3.1 °C 30.05 in /  1017.5 hPa West 4.8 mph /  7.7 km/h 9.2 mph /  14.8 km/h 54 % 0.00 in /  0 mm
13:49 42.0 °F /  5.6 °C 26.1 °F /  -3.3 °C 30.05 in /  1017.5 hPa WNW 1.1 mph /  1.8 km/h 4.6 mph /  7.4 km/h 53 % 0.00 in /  0 mm
13:50 42.1 °F /  5.6 °C 26.2 °F /  -3.2 °C 30.05 in /  1017.5 hPa WNW 0.6 mph /  1 km/h 1.2 mph /  1.9 km/h 53 % 0.00 in /  0 mm
13:55 42.2 °F /  5.7 °C 26.7 °F /  -2.9 °C 30.04 in /  1017.2 hPa NW 1.5 mph /  2.4 km/h 3.5 mph /  5.6 km/h 54 % 0.00 in /  0 mm
14:00 42.3 °F /  5.7 °C 26.4 °F /  -3.1 °C 30.04 in /  1017.2 hPa North 2.3 mph /  3.7 km/h 3.5 mph /  5.6 km/h 53 % 0.00 in /  0 mm
14:05 42.4 °F /  5.8 °C 26.9 °F /  -2.8 °C 30.04 in /  1017.2 hPa WNW 1.3 mph /  2.1 km/h 3.5 mph /  5.6 km/h 54 % 0.00 in /  0 mm
14:10 42.4 °F /  5.8 °C 26.5 °F /  -3.1 °C 30.04 in /  1017.2 hPa Calm   2.3 mph /  3.7 km/h 53 % 0.00 in /  0 mm
14:15 42.5 °F /  5.8 °C 26.6 °F /  -3 °C 30.04 in /  1017.2 hPa NW 1.7 mph /  2.7 km/h 4.0 mph /  6.4 km/h 53 % 0.00 in /  0 mm
14:30 42.0 °F /  5.6 °C 25.6 °F /  -3.6 °C 30.04 in /  1017.2 hPa WSW 3.3 mph /  5.3 km/h 5.0 mph /  8 km/h 52 % 0.00 in /  0 mm
14:35 41.7 °F /  5.4 °C 25.8 °F /  -3.4 °C 30.04 in /  1017.2 hPa NW 1.6 mph /  2.6 km/h 5.8 mph /  9.3 km/h 53 % 0.00 in /  0 mm
14:40 41.5 °F /  5.3 °C 25.6 °F /  -3.6 °C 30.04 in /  1017.2 hPa West 1.2 mph /  1.9 km/h 4.6 mph /  7.4 km/h 53 % 0.00 in /  0 mm
14:45 41.5 °F /  5.3 °C 25.6 °F /  -3.6 °C 29.80 in /  1009 hPa West 1.1 mph /  1.8 km/h 3.5 mph /  5.6 km/h 53 % 0.00 in /  0 mm
14:51 41.3 °F /  5.2 °C 25.9 °F /  -3.4 °C 30.04 in /  1017.2 hPa West 2.0 mph /  3.2 km/h 5.0 mph /  8 km/h 54 % 0.00 in /  0 mm
15:06 41.0 °F /  5 °C 25.6 °F /  -3.6 °C 30.04 in /  1017.2 hPa WSW 0.1 mph /  0.2 km/h 2.3 mph /  3.7 km/h 54 % 0.00 in /  0 mm
15:11 41.0 °F /  5 °C 25.6 °F /  -3.6 °C 30.03 in /  1016.8 hPa Calm   3.0 mph /  4.8 km/h 54 % 0.00 in /  0 mm
15:16 40.9 °F /  4.9 °C 25.5 °F /  -3.6 °C 30.03 in /  1016.8 hPa West 3.6 mph /  5.8 km/h 6.9 mph /  11.1 km/h 54 % 0.00 in /  0 mm
15:21 40.8 °F /  4.9 °C 25.4 °F /  -3.7 °C 30.04 in /  1017.2 hPa WSW 2.0 mph /  3.2 km/h 5.0 mph /  8 km/h 54 % 0.00 in /  0 mm
15:31 40.7 °F /  4.8 °C 25.3 °F /  -3.7 °C 30.04 in /  1017.2 hPa Calm   3.0 mph /  4.8 km/h 54 % 0.00 in /  0 mm
15:36 40.6 °F /  4.8 °C 25.7 °F /  -3.5 °C 29.80 in /  1009 hPa West 1.0 mph /  1.6 km/h 3.0 mph /  4.8 km/h 55 % 0.00 in /  0 mm
15:41 40.5 °F /  4.7 °C 25.6 °F /  -3.6 °C 30.04 in /  1017.2 hPa WSW 3.0 mph /  4.8 km/h 6.0 mph /  9.7 km/h 55 % 0.00 in /  0 mm
15:46 40.4 °F /  4.7 °C 25.5 °F /  -3.6 °C 30.04 in /  1017.2 hPa WSW 2.0 mph /  3.2 km/h 5.0 mph /  8 km/h 55 % 0.00 in /  0 mm
15:56 40.3 °F /  4.6 °C 25.8 °F /  -3.4 °C 30.04 in /  1017.2 hPa WSW 1.0 mph /  1.6 km/h 3.0 mph /  4.8 km/h 56 % 0.00 in /  0 mm
16:01 40.2 °F /  4.6 °C 25.7 °F /  -3.5 °C 30.04 in /  1017.2 hPa WSW 2.4 mph /  3.9 km/h 3.5 mph /  5.6 km/h 56 % 0.00 in /  0 mm
16:13 39.9 °F /  4.4 °C 25.9 °F /  -3.4 °C 30.03 in /  1016.8 hPa Calm     57 % 0.00 in /  0 mm
16:18 39.8 °F /  4.3 °C 25.8 °F /  -3.4 °C 30.03 in /  1016.8 hPa Calm     57 % 0.00 in /  0 mm
16:28 39.5 °F /  4.2 °C 25.9 °F /  -3.4 °C 30.03 in /  1016.8 hPa Calm     58 % 0.00 in /  0 mm
16:33 39.3 °F /  4.1 °C 26.2 °F /  -3.2 °C 29.80 in /  1009 hPa Calm     59 % 0.00 in /  0 mm
16:35 39.2 °F /  4 °C 26.5 °F /  -3.1 °C 30.03 in /  1016.8 hPa Calm     60 % 0.00 in /  0 mm
16:40 39.0 °F /  3.9 °C 26.7 °F /  -2.9 °C 30.03 in /  1016.8 hPa Calm     61 % 0.00 in /  0 mm
16:45 38.8 °F /  3.8 °C 26.5 °F /  -3.1 °C 30.03 in /  1016.8 hPa Calm     61 % 0.00 in /  0 mm
16:50 38.5 °F /  3.6 °C 26.6 °F /  -3 °C 30.03 in /  1016.8 hPa Calm     62 % 0.00 in /  0 mm
16:57 38.2 °F /  3.4 °C 26.7 °F /  -2.9 °C 30.03 in /  1016.8 hPa Calm     63 % 0.00 in /  0 mm
17:02 37.9 °F /  3.3 °C 26.4 °F /  -3.1 °C 30.03 in /  1016.8 hPa Calm     63 % 0.00 in /  0 mm
17:07 37.5 °F /  3.1 °C 26.8 °F /  -2.9 °C 30.03 in /  1016.8 hPa Calm     65 % 0.00 in /  0 mm
17:12 37.3 °F /  2.9 °C 26.6 °F /  -3 °C 30.03 in /  1016.8 hPa Calm     65 % 0.00 in /  0 mm
17:17 37.0 °F /  2.8 °C 26.7 °F /  -2.9 °C 30.03 in /  1016.8 hPa Calm     66 % 0.00 in /  0 mm
17:22 36.7 °F /  2.6 °C 26.4 °F /  -3.1 °C 30.03 in /  1016.8 hPa Calm     66 % 0.00 in /  0 mm
17:27 36.4 °F /  2.4 °C 26.1 °F /  -3.3 °C 30.04 in /  1017.2 hPa WSW 0.1 mph /  0.2 km/h 1.0 mph /  1.6 km/h 66 % 0.00 in /  0 mm
17:32 36.1 °F /  2.3 °C 26.2 °F /  -3.2 °C 30.04 in /  1017.2 hPa Calm     67 % 0.00 in /  0 mm
17:37 35.9 °F /  2.2 °C 26.4 °F /  -3.1 °C 30.04 in /  1017.2 hPa Calm     68 % 0.00 in /  0 mm
17:42 35.6 °F /  2 °C 26.1 °F /  -3.3 °C 30.04 in /  1017.2 hPa Calm     68 % 0.00 in /  0 mm
17:47 35.3 °F /  1.8 °C 25.8 °F /  -3.4 °C 30.04 in /  1017.2 hPa Calm     68 % 0.00 in /  0 mm
17:58 34.9 °F /  1.6 °C 25.4 °F /  -3.7 °C 30.04 in /  1017.2 hPa WSW 0.1 mph /  0.2 km/h 2.3 mph /  3.7 km/h 68 % 0.00 in /  0 mm
18:03 34.8 °F /  1.6 °C 25.3 °F /  -3.7 °C 30.04 in /  1017.2 hPa Calm     68 % 0.00 in /  0 mm
18:08 34.6 °F /  1.4 °C 25.5 °F /  -3.6 °C 30.04 in /  1017.2 hPa Calm     69 % 0.00 in /  0 mm
18:13 34.5 °F /  1.4 °C 25.7 °F /  -3.5 °C 30.03 in /  1016.8 hPa Calm     70 % 0.00 in /  0 mm
18:23 34.2 °F /  1.2 °C 25.8 °F /  -3.4 °C 30.03 in /  1016.8 hPa WSW 0.1 mph /  0.2 km/h 1.2 mph /  1.9 km/h 71 % 0.00 in /  0 mm
18:28 34.1 °F /  1.2 °C 25.7 °F /  -3.5 °C 30.03 in /  1016.8 hPa Calm   1.2 mph /  1.9 km/h 71 % 0.00 in /  0 mm
18:38 33.8 °F /  1 °C 25.7 °F /  -3.5 °C 30.04 in /  1017.2 hPa WSW 1.0 mph /  1.6 km/h 2.3 mph /  3.7 km/h 72 % 0.00 in /  0 mm
18:43 33.7 °F /  0.9 °C 25.6 °F /  -3.6 °C 30.03 in /  1016.8 hPa WSW 1.6 mph /  2.6 km/h 2.3 mph /  3.7 km/h 72 % 0.00 in /  0 mm
18:48 33.5 °F /  0.8 °C 25.8 °F /  -3.4 °C 30.04 in /  1017.2 hPa Calm     73 % 0.00 in /  0 mm
18:53 33.5 °F /  0.8 °C 25.8 °F /  -3.4 °C 30.04 in /  1017.2 hPa Calm     73 % 0.00 in /  0 mm
18:58 33.5 °F /  0.8 °C 25.8 °F /  -3.4 °C 29.80 in /  1009 hPa Calm     73 % 0.00 in /  0 mm
19:13 33.5 °F /  0.8 °C 25.4 °F /  -3.7 °C 30.04 in /  1017.2 hPa Calm   1.2 mph /  1.9 km/h 72 % 0.00 in /  0 mm
19:18 33.6 °F /  0.9 °C 25.2 °F /  -3.8 °C 30.04 in /  1017.2 hPa Calm     71 % 0.00 in /  0 mm
19:24 33.7 °F /  0.9 °C 25.0 °F /  -3.9 °C 29.80 in /  1009 hPa Calm   1.2 mph /  1.9 km/h 70 % 0.00 in /  0 mm
19:34 34.0 °F /  1.1 °C 24.9 °F /  -3.9 °C 30.03 in /  1016.8 hPa Calm     69 % 0.00 in /  0 mm
19:39 34.1 °F /  1.2 °C 25.3 °F /  -3.7 °C 29.80 in /  1009 hPa Calm     70 % 0.00 in /  0 mm
19:43 34.2 °F /  1.2 °C 25.1 °F /  -3.8 °C 30.03 in /  1016.8 hPa Calm     69 % 0.00 in /  0 mm
19:48 34.3 °F /  1.3 °C 24.8 °F /  -4 °C 30.03 in /  1016.8 hPa WSW 0.2 mph /  0.3 km/h   68 % 0.00 in /  0 mm
19:59 34.4 °F /  1.3 °C 24.9 °F /  -3.9 °C 30.03 in /  1016.8 hPa Calm     68 % 0.00 in /  0 mm
20:04 34.4 °F /  1.3 °C 24.9 °F /  -3.9 °C 30.03 in /  1016.8 hPa Calm     68 % 0.00 in /  0 mm
20:09 34.4 °F /  1.3 °C 25.3 °F /  -3.7 °C 30.03 in /  1016.8 hPa Calm     69 % 0.00 in /  0 mm
20:19 34.4 °F /  1.3 °C 25.6 °F /  -3.6 °C 30.04 in /  1017.2 hPa WSW 0.4 mph /  0.6 km/h 1.2 mph /  1.9 km/h 70 % 0.00 in /  0 mm
20:29 34.4 °F /  1.3 °C 26.0 °F /  -3.3 °C 30.03 in /  1016.8 hPa Calm     71 % 0.00 in /  0 mm
20:39 34.3 °F /  1.3 °C 25.9 °F /  -3.4 °C 30.03 in /  1016.8 hPa Calm     71 % 0.00 in /  0 mm
20:49 34.1 °F /  1.2 °C 25.7 °F /  -3.5 °C 30.03 in /  1016.8 hPa Calm     71 % 0.00 in /  0 mm
20:54 34.0 °F /  1.1 °C 25.6 °F /  -3.6 °C 30.04 in /  1017.2 hPa WSW 0.3 mph /  0.5 km/h 1.2 mph /  1.9 km/h 71 % 0.00 in /  0 mm
21:00 33.9 °F /  1.1 °C 25.8 °F /  -3.4 °C 30.04 in /  1017.2 hPa Calm     72 % 0.00 in /  0 mm
21:05 33.8 °F /  1 °C 25.7 °F /  -3.5 °C 30.03 in /  1016.8 hPa WSW 0.6 mph /  1 km/h 1.2 mph /  1.9 km/h 72 % 0.00 in /  0 mm
21:10 33.6 °F /  0.9 °C 25.9 °F /  -3.4 °C 30.04 in /  1017.2 hPa WSW 0.3 mph /  0.5 km/h 1.2 mph /  1.9 km/h 73 % 0.00 in /  0 mm
21:15 33.5 °F /  0.8 °C 25.8 °F /  -3.4 °C 30.04 in /  1017.2 hPa Calm     73 % 0.00 in /  0 mm
21:20 33.4 °F /  0.8 °C 25.7 °F /  -3.5 °C 30.04 in /  1017.2 hPa Calm     73 % 0.00 in /  0 mm
21:25 33.3 °F /  0.7 °C 25.6 °F /  -3.6 °C 30.05 in /  1017.5 hPa Calm     73 % 0.00 in /  0 mm
21:30 33.2 °F /  0.7 °C 25.8 °F /  -3.4 °C 30.05 in /  1017.5 hPa Calm     74 % 0.00 in /  0 mm
21:35 33.0 °F /  0.6 °C 25.6 °F /  -3.6 °C 30.05 in /  1017.5 hPa Calm     74 % 0.00 in /  0 mm
21:45 32.8 °F /  0.4 °C 25.7 °F /  -3.5 °C 30.05 in /  1017.5 hPa WSW 1.3 mph /  2.1 km/h 2.3 mph /  3.7 km/h 75 % 0.00 in /  0 mm
21:55 32.6 °F /  0.3 °C 25.9 °F /  -3.4 °C 30.05 in /  1017.5 hPa WSW 1.0 mph /  1.6 km/h 2.3 mph /  3.7 km/h 76 % 0.00 in /  0 mm
22:00 32.5 °F /  0.3 °C 25.8 °F /  -3.4 °C 30.05 in /  1017.5 hPa Calm   1.2 mph /  1.9 km/h 76 % 0.00 in /  0 mm
22:05 32.4 °F /  0.2 °C 26.0 °F /  -3.3 °C 30.06 in /  1017.8 hPa WSW 1.5 mph /  2.4 km/h 2.3 mph /  3.7 km/h 77 % 0.00 in /  0 mm
22:10 32.3 °F /  0.2 °C 25.9 °F /  -3.4 °C 30.06 in /  1017.8 hPa Calm   1.2 mph /  1.9 km/h 77 % 0.00 in /  0 mm
22:16 32.3 °F /  0.2 °C 25.9 °F /  -3.4 °C 30.06 in /  1017.8 hPa WSW 0.9 mph /  1.4 km/h 1.2 mph /  1.9 km/h 77 % 0.00 in /  0 mm
22:21 32.2 °F /  0.1 °C 26.1 °F /  -3.3 °C 30.06 in /  1017.8 hPa Calm   1.0 mph /  1.6 km/h 78 % 0.00 in /  0 mm
22:23 32.1 °F /  0.1 °C 26.0 °F /  -3.3 °C 30.06 in /  1017.8 hPa Calm   1.2 mph /  1.9 km/h 78 % 0.00 in /  0 mm
22:31 32.0 °F /  0 °C 25.9 °F /  -3.4 °C 30.05 in /  1017.5 hPa Calm     78 % 0.00 in /  0 mm
22:36 32.0 °F /  0 °C 25.9 °F /  -3.4 °C 30.06 in /  1017.8 hPa Calm     78 % 0.00 in /  0 mm
22:41 31.9 °F /  -0.1 °C 25.8 °F /  -3.4 °C 30.06 in /  1017.8 hPa WSW 0.5 mph /  0.8 km/h 1.2 mph /  1.9 km/h 78 % 0.00 in /  0 mm
22:46 31.9 °F /  -0.1 °C 26.1 °F /  -3.3 °C 30.06 in /  1017.8 hPa WSW 0.3 mph /  0.5 km/h 1.2 mph /  1.9 km/h 79 % 0.00 in /  0 mm
22:52 31.8 °F /  -0.1 °C 26.0 °F /  -3.3 °C 30.05 in /  1017.5 hPa WSW 0.9 mph /  1.4 km/h 2.3 mph /  3.7 km/h 79 % 0.00 in /  0 mm
22:57 31.7 °F /  -0.2 °C 25.9 °F /  -3.4 °C 30.05 in /  1017.5 hPa WSW 0.2 mph /  0.3 km/h 1.2 mph /  1.9 km/h 79 % 0.00 in /  0 mm
23:07 31.6 °F /  -0.2 °C 26.1 °F /  -3.3 °C 30.05 in /  1017.5 hPa Calm     80 % 0.00 in /  0 mm
23:11 31.6 °F /  -0.2 °C 26.1 °F /  -3.3 °C 30.05 in /  1017.5 hPa Calm     80 % 0.00 in /  0 mm
23:17 31.6 °F /  -0.2 °C 26.1 °F /  -3.3 °C 30.05 in /  1017.5 hPa WSW 1.3 mph /  2.1 km/h 2.3 mph /  3.7 km/h 80 % 0.00 in /  0 mm
23:22 31.5 °F /  -0.3 °C 26.0 °F /  -3.3 °C 30.05 in /  1017.5 hPa WSW 0.6 mph /  1 km/h 2.3 mph /  3.7 km/h 80 % 0.00 in /  0 mm
23:26 31.4 °F /  -0.3 °C 25.9 °F /  -3.4 °C 30.05 in /  1017.5 hPa WSW 1.0 mph /  1.6 km/h 2.0 mph /  3.2 km/h 80 % 0.00 in /  0 mm
23:32 31.4 °F /  -0.3 °C 25.9 °F /  -3.4 °C 30.05 in /  1017.5 hPa WSW 0.9 mph /  1.4 km/h 1.2 mph /  1.9 km/h 80 % 0.00 in /  0 mm
23:37 31.3 °F /  -0.4 °C 25.8 °F /  -3.4 °C 30.05 in /  1017.5 hPa Calm     80 % 0.00 in /  0 mm
23:42 31.2 °F /  -0.4 °C 25.7 °F /  -3.5 °C 30.05 in /  1017.5 hPa WSW 0.5 mph /  0.8 km/h 2.3 mph /  3.7 km/h 80 % 0.00 in /  0 mm
23:47 31.2 °F /  -0.4 °C 26.0 °F /  -3.3 °C 30.05 in /  1017.5 hPa WSW 0.4 mph /  0.6 km/h 1.2 mph /  1.9 km/h 81 % 0.00 in /  0 mm
23:57 31.1 °F /  -0.5 °C 26.0 °F /  -3.3 °C 30.06 in /  1017.8 hPa WSW 1.1 mph /  1.8 km/h 2.3 mph /  3.7 km/h 81 % 0.00 in /  0 mm
Crab Meadow Weather
Compliments of Weather Underground - 2.75 mb

Script developed by  Jim McMurry - jmcmurry@mwt.net Adapted for the template by  Wim van der Kuil - Leuven-Template.eu

Lightning: The chances of being hit by lightning is 1:28,500.